Sunday, October 21, 2018, 2:38 AM EDT
Back to Local

KHIE, Mt Washington Regional Airport

Location: Jefferson, NH, United States Lat: 44.367
Local Time: 2:38 AM EDT ( 6:38 GMT) Lon: -71.55
Time Zone: US/Eastern Elev: 1072 ft

Show me the last for .
Show Decoded

2018-10-21 01:52 METAR KHIE 210552Z AUTO 00000KT 10SM CLR M01/M02 A2961 RMK AO2 SLP033 T10061022
                 10044 21011 53007 =
2018-10-21 00:52 METAR KHIE 210452Z AUTO 00000KT 10SM SCT047 01/M01 A2960 RMK AO2 SLP029
                 T00061011 401610000 =
2018-10-20 23:52 METAR KHIE 210352Z AUTO 19003KT 10SM BKN042 02/01 A2960 RMK AO2 SLP030 T00220006
                 =
2018-10-20 22:52 METAR KHIE 210252Z AUTO 00000KT 10SM FEW065 03/00 A2959 RMK AO2 SLP026 T00280000
                 53016 =
2018-10-20 21:52 METAR KHIE 210152Z AUTO 03003KT 10SM OVC065 03/01 A2957 RMK AO2 SLP019 T00330011
                 =
2018-10-20 20:52 METAR KHIE 210052Z AUTO 00000KT 10SM BKN070 03/01 A2955 RMK AO2 SLP012 T00330006
                 =
2018-10-20 19:52 METAR KHIE 202352Z AUTO 14003KT 10SM CLR 04/00 A2954 RMK AO2 SLP010 T00390000
                 10161 20039 53016 =
2018-10-20 18:52 METAR KHIE 202252Z AUTO 23003KT 10SM CLR 09/00 A2952 RMK AO2 SLP001 T00890000 =
2018-10-20 17:52 METAR KHIE 202152Z AUTO 27006KT 10SM CLR 12/M02 A2951 RMK AO2 SLP994 T01171022 =
2018-10-20 16:52 METAR KHIE 202052Z AUTO 28009KT 10SM BKN070 OVC090 15/00 A2949 RMK AO2 SLP988
                 T01500000 55001 =
2018-10-20 15:52 METAR KHIE 201952Z AUTO 27009G16KT 10SM SCT080 15/M01 A2948 RMK AO2 SLP984
                 T01501011 =
2018-10-20 14:52 METAR KHIE 201852Z AUTO 23010G20KT 10SM BKN070 16/00 A2948 RMK AO2 SLP984
                 T01610000 =
2018-10-20 13:52 METAR KHIE 201752Z AUTO 27012G22KT 10SM SCT065 14/01 A2950 RMK AO2 SLP990 60000
                 T01440006 10156 20106 58009 =
2018-10-20 12:52 METAR KHIE 201652Z AUTO 24012G21KT 10SM SCT050 BKN060 15/04 A2950 RMK AO2 SLP993
                 T01500039 =
2018-10-20 11:52 METAR KHIE 201552Z AUTO 23009G18KT 190V270 10SM CLR 13/06 A2952 RMK AO2 SLP001
                 T01330056 =
2018-10-20 10:52 METAR KHIE 201452Z AUTO 22007G17KT 100V270 10SM FEW033 BKN046 13/05 A2953 RMK
                 AO2 SLP001 60000 T01280050 50001 =
2018-10-20 09:52 METAR KHIE 201352Z AUTO 22008G19KT 10SM OVC044 11/05 A2954 RMK AO2 RAE1255
                 SLP007 P0000 T01110050 =
2018-10-20 08:52 METAR KHIE 201252Z AUTO 23009G17KT 10SM -RA BKN039 BKN046 OVC070 11/05 A2953 RMK
                 AO2 RAB26 SLP005 P0000 T01060050 =
2018-10-20 07:52 METAR KHIE 201152Z AUTO 22004KT 10SM OVC048 11/03 A2952 RMK AO2 SLP001 T01110033
                 10122 20106 58011 =
2018-10-20 06:52 METAR KHIE 201052Z AUTO 23005KT 10SM OVC042 11/03 A2954 RMK AO2 SLP006 T01060028
                 =
2018-10-20 05:52 METAR KHIE 200952Z AUTO 20003KT 10SM OVC046 11/01 A2955 RMK AO2 SLP007 T01110011
                 =
2018-10-20 04:52 METAR KHIE 200852Z AUTO 20009G14KT 160V220 10SM OVC060 12/00 A2956 RMK AO2
                 SLP010 T01170000 56030 =
2018-10-20 03:52 METAR KHIE 200752Z AUTO VRB03KT 10SM BKN070 OVC095 12/M01 A2959 RMK AO2 SLP020
                 T01171011 =
2018-10-20 02:52 METAR KHIE 200652Z AUTO VRB04KT 10SM OVC100 12/M02 A2961 RMK AO2 SLP029
                 T01171017 =

Support USWX by starting your Amazon purchase here.